sensor_id;sensor_type;location;lat;lon;timestamp;pressure;altitude;pressure_sealevel;temperature;humidity
62057;BME280;48016;50.284;18.860;2023-05-24T00:02:07;97838.05;;;15.83;87.64
62057;BME280;48016;50.284;18.860;2023-05-24T00:04:34;97835.77;;;15.83;87.58
62057;BME280;48016;50.284;18.860;2023-05-24T00:07:00;97835.32;;;15.83;87.60
62057;BME280;48016;50.284;18.860;2023-05-24T00:09:30;97836.61;;;15.81;87.50
62057;BME280;48016;50.284;18.860;2023-05-24T00:11:57;97837.11;;;15.80;87.70
62057;BME280;48016;50.284;18.860;2023-05-24T00:14:24;97842.02;;;15.80;87.61
62057;BME280;48016;50.284;18.860;2023-05-24T00:16:51;97836.14;;;15.77;87.63
62057;BME280;48016;50.284;18.860;2023-05-24T00:19:17;97840.11;;;15.77;87.67
62057;BME280;48016;50.284;18.860;2023-05-24T00:21:47;97838.41;;;15.75;87.79
62057;BME280;48016;50.284;18.860;2023-05-24T00:24:14;97840.33;;;15.71;87.74
62057;BME280;48016;50.284;18.860;2023-05-24T00:26:43;97839.65;;;15.69;87.86
62057;BME280;48016;50.284;18.860;2023-05-24T00:29:10;97841.58;;;15.69;87.77
62057;BME280;48016;50.284;18.860;2023-05-24T00:31:37;97843.41;;;15.70;87.68
62057;BME280;48016;50.284;18.860;2023-05-24T00:34:03;97845.14;;;15.70;87.71
62057;BME280;48016;50.284;18.860;2023-05-24T00:36:30;97844.35;;;15.69;87.75
62057;BME280;48016;50.284;18.860;2023-05-24T00:38:57;97844.73;;;15.67;87.61
62057;BME280;48016;50.284;18.860;2023-05-24T00:41:24;97845.70;;;15.67;87.85
62057;BME280;48016;50.284;18.860;2023-05-24T00:43:51;97846.11;;;15.66;87.65
62057;BME280;48016;50.284;18.860;2023-05-24T00:46:26;97847.47;;;15.63;87.73
62057;BME280;48016;50.284;18.860;2023-05-24T00:48:54;97849.31;;;15.64;87.28
62057;BME280;48016;50.284;18.860;2023-05-24T00:51:21;97853.73;;;15.63;87.17
62057;BME280;48016;50.284;18.860;2023-05-24T00:53:48;97854.19;;;15.62;87.45
62057;BME280;48016;50.284;18.860;2023-05-24T00:56:16;97853.06;;;15.61;87.30
62057;BME280;48016;50.284;18.860;2023-05-24T00:58:43;97853.95;;;15.60;87.19
62057;BME280;48016;50.284;18.860;2023-05-24T01:01:10;97857.23;;;15.59;87.07
62057;BME280;48016;50.284;18.860;2023-05-24T01:03:37;97859.80;;;15.58;87.16
62057;BME280;48016;50.284;18.860;2023-05-24T01:06:05;97857.33;;;15.57;86.87
62057;BME280;48016;50.284;18.860;2023-05-24T01:16:54;97863.33;;;15.49;86.73
62057;BME280;48016;50.284;18.860;2023-05-24T01:25:11;97865.92;;;15.45;86.83
62057;BME280;48016;50.284;18.860;2023-05-24T01:27:39;97866.92;;;15.43;86.80
62057;BME280;48016;50.284;18.860;2023-05-24T01:30:09;97869.85;;;15.44;86.82
62057;BME280;48016;50.284;18.860;2023-05-24T01:32:35;97870.55;;;15.44;86.94
62057;BME280;48016;50.284;18.860;2023-05-24T01:35:04;97871.42;;;15.44;86.88
62057;BME280;48016;50.284;18.860;2023-05-24T01:37:31;97870.58;;;15.43;87.04
62057;BME280;48016;50.284;18.860;2023-05-24T01:39:58;97871.52;;;15.42;86.82
62057;BME280;48016;50.284;18.860;2023-05-24T01:42:32;97873.44;;;15.42;86.85
62057;BME280;48016;50.284;18.860;2023-05-24T01:45:03;97873.04;;;15.38;86.91
62057;BME280;48016;50.284;18.860;2023-05-24T01:50:02;97876.20;;;15.34;86.85
62057;BME280;48016;50.284;18.860;2023-05-24T01:52:33;97878.90;;;15.33;86.95
62057;BME280;48016;50.284;18.860;2023-05-24T01:55:02;97879.67;;;15.33;86.83
62057;BME280;48016;50.284;18.860;2023-05-24T01:57:29;97881.98;;;15.32;86.67
62057;BME280;48016;50.284;18.860;2023-05-24T01:59:59;97883.20;;;15.30;86.62
62057;BME280;48016;50.284;18.860;2023-05-24T02:02:27;97889.64;;;15.29;86.49
62057;BME280;48016;50.284;18.860;2023-05-24T02:04:54;97892.98;;;15.27;86.72
62057;BME280;48016;50.284;18.860;2023-05-24T02:07:21;97894.57;;;15.24;86.46
62057;BME280;48016;50.284;18.860;2023-05-24T02:09:48;97895.55;;;15.20;86.47
62057;BME280;48016;50.284;18.860;2023-05-24T02:12:14;97892.80;;;15.14;86.66
62057;BME280;48016;50.284;18.860;2023-05-24T02:14:41;97893.10;;;15.12;86.60
62057;BME280;48016;50.284;18.860;2023-05-24T02:17:08;97894.31;;;15.11;86.62
62057;BME280;48016;50.284;18.860;2023-05-24T02:19:35;97896.45;;;15.10;86.64
62057;BME280;48016;50.284;18.860;2023-05-24T02:22:02;97895.08;;;15.07;86.66
62057;BME280;48016;50.284;18.860;2023-05-24T02:24:29;97897.00;;;15.03;86.74
62057;BME280;48016;50.284;18.860;2023-05-24T02:26:55;97899.23;;;15.02;86.60
62057;BME280;48016;50.284;18.860;2023-05-24T02:29:22;97895.65;;;15.01;86.53
62057;BME280;48016;50.284;18.860;2023-05-24T02:31:49;97899.30;;;15.00;86.81
62057;BME280;48016;50.284;18.860;2023-05-24T02:34:21;97897.96;;;15.00;86.69
62057;BME280;48016;50.284;18.860;2023-05-24T02:36:49;97897.59;;;14.99;86.67
62057;BME280;48016;50.284;18.860;2023-05-24T02:39:16;97898.96;;;14.98;86.56
62057;BME280;48016;50.284;18.860;2023-05-24T02:41:43;97901.45;;;15.00;86.45
62057;BME280;48016;50.284;18.860;2023-05-24T02:44:09;97899.77;;;15.00;86.64
62057;BME280;48016;50.284;18.860;2023-05-24T02:46:37;97899.25;;;15.00;86.65
62057;BME280;48016;50.284;18.860;2023-05-24T02:49:03;97900.20;;;14.99;86.73
62057;BME280;48016;50.284;18.860;2023-05-24T02:51:30;97900.16;;;14.99;86.63
62057;BME280;48016;50.284;18.860;2023-05-24T02:53:57;97900.09;;;14.99;86.38
62057;BME280;48016;50.284;18.860;2023-05-24T02:56:24;97897.79;;;14.97;86.47
62057;BME280;48016;50.284;18.860;2023-05-24T02:58:51;97901.44;;;14.97;86.58
62057;BME280;48016;50.284;18.860;2023-05-24T03:01:19;97901.13;;;14.95;86.76
62057;BME280;48016;50.284;18.860;2023-05-24T03:03:47;97907.84;;;14.94;86.66
62057;BME280;48016;50.284;18.860;2023-05-24T03:06:14;97907.30;;;14.94;86.64
62057;BME280;48016;50.284;18.860;2023-05-24T03:08:41;97910.85;;;14.93;86.64
62057;BME280;48016;50.284;18.860;2023-05-24T03:11:07;97912.86;;;14.93;86.57
62057;BME280;48016;50.284;18.860;2023-05-24T03:13:34;97913.52;;;14.92;86.63
62057;BME280;48016;50.284;18.860;2023-05-24T03:16:01;97913.99;;;14.94;86.65
62057;BME280;48016;50.284;18.860;2023-05-24T03:18:27;97915.90;;;14.93;86.67
62057;BME280;48016;50.284;18.860;2023-05-24T03:20:54;97919.11;;;14.94;86.44
62057;BME280;48016;50.284;18.860;2023-05-24T03:23:20;97919.52;;;14.94;86.44
62057;BME280;48016;50.284;18.860;2023-05-24T03:25:47;97919.64;;;14.95;86.39
62057;BME280;48016;50.284;18.860;2023-05-24T03:28:14;97920.73;;;14.96;86.56
62057;BME280;48016;50.284;18.860;2023-05-24T03:30:41;97921.82;;;14.98;86.39
62057;BME280;48016;50.284;18.860;2023-05-24T03:33:07;97922.79;;;14.99;86.44
62057;BME280;48016;50.284;18.860;2023-05-24T03:35:34;97923.83;;;14.99;86.49
62057;BME280;48016;50.284;18.860;2023-05-24T03:38:01;97926.98;;;15.00;86.61
62057;BME280;48016;50.284;18.860;2023-05-24T03:40:27;97931.34;;;15.00;86.49
62057;BME280;48016;50.284;18.860;2023-05-24T03:42:58;97930.23;;;15.00;86.51
62057;BME280;48016;50.284;18.860;2023-05-24T03:45:25;97933.25;;;14.99;86.70
62057;BME280;48016;50.284;18.860;2023-05-24T03:47:51;97932.60;;;14.99;86.80
62057;BME280;48016;50.284;18.860;2023-05-24T03:50:18;97931.93;;;14.96;87.01
62057;BME280;48016;50.284;18.860;2023-05-24T03:52:44;97933.65;;;14.92;86.86
62057;BME280;48016;50.284;18.860;2023-05-24T03:55:12;97933.70;;;14.89;87.00
62057;BME280;48016;50.284;18.860;2023-05-24T03:57:40;97934.61;;;14.89;86.82
62057;BME280;48016;50.284;18.860;2023-05-24T04:00:10;97935.79;;;14.88;86.93
62057;BME280;48016;50.284;18.860;2023-05-24T04:02:37;97936.85;;;14.85;86.98
62057;BME280;48016;50.284;18.860;2023-05-24T04:05:05;97943.98;;;14.81;87.07
62057;BME280;48016;50.284;18.860;2023-05-24T04:07:36;97953.23;;;14.77;87.17
62057;BME280;48016;50.284;18.860;2023-05-24T04:10:04;97955.79;;;14.72;87.00
62057;BME280;48016;50.284;18.860;2023-05-24T04:12:32;97956.68;;;14.65;86.95
62057;BME280;48016;50.284;18.860;2023-05-24T04:14:59;97958.48;;;14.60;86.94
62057;BME280;48016;50.284;18.860;2023-05-24T04:17:26;97963.72;;;14.53;86.74
62057;BME280;48016;50.284;18.860;2023-05-24T04:19:55;97967.64;;;14.43;86.75
62057;BME280;48016;50.284;18.860;2023-05-24T04:22:22;97974.10;;;14.36;86.65
62057;BME280;48016;50.284;18.860;2023-05-24T04:24:49;97978.41;;;14.29;86.55
62057;BME280;48016;50.284;18.860;2023-05-24T04:27:15;97978.90;;;14.22;86.70
62057;BME280;48016;50.284;18.860;2023-05-24T04:29:43;97982.51;;;14.16;86.54
62057;BME280;48016;50.284;18.860;2023-05-24T04:32:15;97987.33;;;14.05;86.60
62057;BME280;48016;50.284;18.860;2023-05-24T04:34:43;97993.10;;;13.98;86.66
62057;BME280;48016;50.284;18.860;2023-05-24T04:37:11;97998.45;;;13.92;86.57
62057;BME280;48016;50.284;18.860;2023-05-24T04:39:45;98005.56;;;13.88;86.35
62057;BME280;48016;50.284;18.860;2023-05-24T04:42:12;98003.04;;;13.83;86.39
62057;BME280;48016;50.284;18.860;2023-05-24T04:44:39;98008.67;;;13.79;86.40
62057;BME280;48016;50.284;18.860;2023-05-24T04:47:06;98006.52;;;13.74;86.29
62057;BME280;48016;50.284;18.860;2023-05-24T04:49:34;98009.83;;;13.69;86.34
62057;BME280;48016;50.284;18.860;2023-05-24T04:52:00;98014.15;;;13.64;86.25
62057;BME280;48016;50.284;18.860;2023-05-24T04:54:27;98014.68;;;13.59;86.20
62057;BME280;48016;50.284;18.860;2023-05-24T04:56:54;98016.21;;;13.54;86.13
62057;BME280;48016;50.284;18.860;2023-05-24T04:59:20;98017.81;;;13.51;86.08
62057;BME280;48016;50.284;18.860;2023-05-24T05:01:47;98014.59;;;13.47;86.30
62057;BME280;48016;50.284;18.860;2023-05-24T05:04:14;98019.11;;;13.45;86.36
62057;BME280;48016;50.284;18.860;2023-05-24T05:06:42;98022.00;;;13.43;86.27
62057;BME280;48016;50.284;18.860;2023-05-24T05:09:09;98025.64;;;13.41;86.48
62057;BME280;48016;50.284;18.860;2023-05-24T05:11:39;98028.63;;;13.39;86.61
62057;BME280;48016;50.284;18.860;2023-05-24T05:14:06;98037.16;;;13.39;86.53
62057;BME280;48016;50.284;18.860;2023-05-24T05:16:34;98042.98;;;13.40;86.51
62057;BME280;48016;50.284;18.860;2023-05-24T05:19:03;98048.84;;;13.39;86.27
62057;BME280;48016;50.284;18.860;2023-05-24T05:21:33;98050.39;;;13.31;86.07
62057;BME280;48016;50.284;18.860;2023-05-24T05:24:01;98058.17;;;13.25;85.94
62057;BME280;48016;50.284;18.860;2023-05-24T05:26:27;98061.94;;;13.17;85.88
62057;BME280;48016;50.284;18.860;2023-05-24T05:28:55;98066.19;;;13.07;85.90
62057;BME280;48016;50.284;18.860;2023-05-24T05:31:22;98068.45;;;13.03;85.74
62057;BME280;48016;50.284;18.860;2023-05-24T05:33:49;98077.89;;;13.00;85.65
62057;BME280;48016;50.284;18.860;2023-05-24T05:36:16;98077.80;;;12.96;85.54
62057;BME280;48016;50.284;18.860;2023-05-24T05:38:43;98084.59;;;12.94;85.51
62057;BME280;48016;50.284;18.860;2023-05-24T05:41:09;98088.44;;;12.91;85.49
62057;BME280;48016;50.284;18.860;2023-05-24T05:43:37;98092.98;;;12.95;85.37
62057;BME280;48016;50.284;18.860;2023-05-24T05:46:04;98092.50;;;12.99;85.27
62057;BME280;48016;50.284;18.860;2023-05-24T05:48:31;98098.58;;;12.99;85.01
62057;BME280;48016;50.284;18.860;2023-05-24T05:50:57;98099.98;;;13.01;84.96
62057;BME280;48016;50.284;18.860;2023-05-24T05:53:24;98105.73;;;12.99;84.80
62057;BME280;48016;50.284;18.860;2023-05-24T05:55:51;98109.77;;;12.97;84.82
62057;BME280;48016;50.284;18.860;2023-05-24T05:58:17;98114.97;;;12.96;84.82
62057;BME280;48016;50.284;18.860;2023-05-24T06:00:44;98119.38;;;12.95;84.83
62057;BME280;48016;50.284;18.860;2023-05-24T06:03:11;98124.21;;;12.94;84.59
62057;BME280;48016;50.284;18.860;2023-05-24T06:05:37;98127.69;;;12.93;84.40
62057;BME280;48016;50.284;18.860;2023-05-24T06:08:04;98130.07;;;12.89;84.20
62057;BME280;48016;50.284;18.860;2023-05-24T06:10:30;98134.31;;;12.86;84.00
62057;BME280;48016;50.284;18.860;2023-05-24T06:12:57;98135.57;;;12.81;84.01
62057;BME280;48016;50.284;18.860;2023-05-24T06:15:24;98140.89;;;12.79;83.95
62057;BME280;48016;50.284;18.860;2023-05-24T06:17:50;98141.27;;;12.78;83.89
62057;BME280;48016;50.284;18.860;2023-05-24T06:20:18;98142.95;;;12.78;83.70
62057;BME280;48016;50.284;18.860;2023-05-24T06:22:44;98148.16;;;12.75;83.69
62057;BME280;48016;50.284;18.860;2023-05-24T06:25:11;98150.92;;;12.73;83.60
62057;BME280;48016;50.284;18.860;2023-05-24T06:27:45;98154.83;;;12.73;83.63
62057;BME280;48016;50.284;18.860;2023-05-24T06:30:12;98154.17;;;12.72;83.44
62057;BME280;48016;50.284;18.860;2023-05-24T06:32:39;98153.86;;;12.72;83.50
62057;BME280;48016;50.284;18.860;2023-05-24T06:35:06;98160.32;;;12.75;83.42
62057;BME280;48016;50.284;18.860;2023-05-24T06:37:33;98163.95;;;12.77;83.41
62057;BME280;48016;50.284;18.860;2023-05-24T06:40:00;98163.84;;;12.77;83.33
62057;BME280;48016;50.284;18.860;2023-05-24T06:42:27;98166.82;;;12.75;83.29
62057;BME280;48016;50.284;18.860;2023-05-24T06:44:54;98170.25;;;12.76;83.37
62057;BME280;48016;50.284;18.860;2023-05-24T06:47:21;98175.28;;;12.80;83.26
62057;BME280;48016;50.284;18.860;2023-05-24T06:49:48;98177.29;;;12.81;82.93
62057;BME280;48016;50.284;18.860;2023-05-24T06:52:15;98178.16;;;12.78;82.94
62057;BME280;48016;50.284;18.860;2023-05-24T06:54:42;98179.14;;;12.77;82.86
62057;BME280;48016;50.284;18.860;2023-05-24T06:57:08;98182.23;;;12.78;82.91
62057;BME280;48016;50.284;18.860;2023-05-24T06:59:35;98186.95;;;12.79;82.78
62057;BME280;48016;50.284;18.860;2023-05-24T07:02:02;98191.67;;;12.78;82.74
62057;BME280;48016;50.284;18.860;2023-05-24T07:04:28;98190.58;;;12.78;82.64
62057;BME280;48016;50.284;18.860;2023-05-24T07:06:55;98195.96;;;12.79;82.59
62057;BME280;48016;50.284;18.860;2023-05-24T07:09:22;98198.39;;;12.80;82.60
62057;BME280;48016;50.284;18.860;2023-05-24T07:11:49;98195.67;;;12.83;82.50
62057;BME280;48016;50.284;18.860;2023-05-24T07:14:16;98194.44;;;12.90;82.49
62057;BME280;48016;50.284;18.860;2023-05-24T07:16:42;98196.59;;;12.99;82.28
62057;BME280;48016;50.284;18.860;2023-05-24T07:19:09;98200.98;;;13.05;82.32
62057;BME280;48016;50.284;18.860;2023-05-24T07:21:36;98206.74;;;13.09;82.14
62057;BME280;48016;50.284;18.860;2023-05-24T07:24:03;98213.61;;;13.16;82.04
62057;BME280;48016;50.284;18.860;2023-05-24T07:26:30;98215.30;;;13.19;81.81
62057;BME280;48016;50.284;18.860;2023-05-24T07:28:57;98217.73;;;13.23;81.77
62057;BME280;48016;50.284;18.860;2023-05-24T07:31:23;98219.43;;;13.29;81.71
62057;BME280;48016;50.284;18.860;2023-05-24T07:33:50;98221.75;;;13.37;81.50
62057;BME280;48016;50.284;18.860;2023-05-24T07:36:17;98219.67;;;13.45;81.17
62057;BME280;48016;50.284;18.860;2023-05-24T07:38:43;98223.73;;;13.50;81.02
62057;BME280;48016;50.284;18.860;2023-05-24T07:41:12;98226.39;;;13.54;80.74
62057;BME280;48016;50.284;18.860;2023-05-24T07:43:39;98231.64;;;13.56;80.64
62057;BME280;48016;50.284;18.860;2023-05-24T07:46:06;98233.71;;;13.54;80.13
62057;BME280;48016;50.284;18.860;2023-05-24T07:48:32;98239.92;;;13.50;80.28
62057;BME280;48016;50.284;18.860;2023-05-24T07:50:59;98240.57;;;13.49;80.08
62057;BME280;48016;50.284;18.860;2023-05-24T07:53:26;98246.34;;;13.47;79.83
62057;BME280;48016;50.284;18.860;2023-05-24T07:55:53;98249.17;;;13.41;79.91
62057;BME280;48016;50.284;18.860;2023-05-24T07:58:19;98251.63;;;13.39;79.85
62057;BME280;48016;50.284;18.860;2023-05-24T08:00:46;98254.44;;;13.39;79.55
62057;BME280;48016;50.284;18.860;2023-05-24T08:03:12;98258.20;;;13.40;79.33
62057;BME280;48016;50.284;18.860;2023-05-24T08:05:40;98261.94;;;13.38;79.16
62057;BME280;48016;50.284;18.860;2023-05-24T08:08:06;98262.88;;;13.33;79.18
62057;BME280;48016;50.284;18.860;2023-05-24T08:10:33;98265.75;;;13.27;79.30
62057;BME280;48016;50.284;18.860;2023-05-24T08:13:00;98268.02;;;13.22;79.15
62057;BME280;48016;50.284;18.860;2023-05-24T08:15:27;98270.56;;;13.20;79.12
62057;BME280;48016;50.284;18.860;2023-05-24T08:17:53;98272.63;;;13.20;79.20
62057;BME280;48016;50.284;18.860;2023-05-24T08:20:20;98274.52;;;13.18;79.12
62057;BME280;48016;50.284;18.860;2023-05-24T08:22:47;98277.83;;;13.14;79.14
62057;BME280;48016;50.284;18.860;2023-05-24T08:25:14;98278.71;;;13.12;79.19
62057;BME280;48016;50.284;18.860;2023-05-24T08:27:41;98280.01;;;13.14;79.20
62057;BME280;48016;50.284;18.860;2023-05-24T08:30:08;98282.62;;;13.19;79.15
62057;BME280;48016;50.284;18.860;2023-05-24T08:32:36;98286.31;;;13.24;79.06
62057;BME280;48016;50.284;18.860;2023-05-24T08:35:04;98286.33;;;13.30;79.02
62057;BME280;48016;50.284;18.860;2023-05-24T08:37:30;98290.50;;;13.38;78.83
62057;BME280;48016;50.284;18.860;2023-05-24T08:39:58;98292.36;;;13.39;78.50
62057;BME280;48016;50.284;18.860;2023-05-24T08:42:26;98296.48;;;13.37;78.29
62057;BME280;48016;50.284;18.860;2023-05-24T08:45:14;98300.34;;;13.29;78.21
62057;BME280;48016;50.284;18.860;2023-05-24T08:47:40;98300.39;;;13.30;78.19
62057;BME280;48016;50.284;18.860;2023-05-24T08:50:09;98299.95;;;13.33;78.12
62057;BME280;48016;50.284;18.860;2023-05-24T08:52:37;98299.20;;;13.40;77.69
62057;BME280;48016;50.284;18.860;2023-05-24T08:55:05;98303.26;;;13.43;77.72
62057;BME280;48016;50.284;18.860;2023-05-24T08:57:33;98307.77;;;13.46;77.74
62057;BME280;48016;50.284;18.860;2023-05-24T09:00:07;98304.84;;;13.50;77.38
62057;BME280;48016;50.284;18.860;2023-05-24T09:02:40;98308.84;;;13.54;77.23
62057;BME280;48016;50.284;18.860;2023-05-24T09:05:09;98312.48;;;13.60;77.18
62057;BME280;48016;50.284;18.860;2023-05-24T09:07:37;98319.58;;;13.69;76.92
62057;BME280;48016;50.284;18.860;2023-05-24T09:10:04;98324.13;;;13.78;76.50
62057;BME280;48016;50.284;18.860;2023-05-24T09:12:32;98327.48;;;13.85;76.25
62057;BME280;48016;50.284;18.860;2023-05-24T09:14:59;98332.84;;;13.96;75.94
62057;BME280;48016;50.284;18.860;2023-05-24T09:17:26;98335.55;;;14.00;75.86
62057;BME280;48016;50.284;18.860;2023-05-24T09:19:53;98340.27;;;14.02;75.61
62057;BME280;48016;50.284;18.860;2023-05-24T09:22:22;98343.20;;;14.04;75.54
62057;BME280;48016;50.284;18.860;2023-05-24T09:24:52;98344.33;;;14.05;75.37
62057;BME280;48016;50.284;18.860;2023-05-24T09:27:19;98346.95;;;14.05;75.37
62057;BME280;48016;50.284;18.860;2023-05-24T09:29:49;98348.77;;;14.06;75.27
62057;BME280;48016;50.284;18.860;2023-05-24T09:32:18;98351.29;;;14.04;75.23
62057;BME280;48016;50.284;18.860;2023-05-24T09:34:47;98350.77;;;13.98;75.05
62057;BME280;48016;50.284;18.860;2023-05-24T09:37:22;98354.58;;;13.96;75.28
62057;BME280;48016;50.284;18.860;2023-05-24T09:39:49;98358.09;;;13.99;75.32
62057;BME280;48016;50.284;18.860;2023-05-24T09:42:18;98360.64;;;14.05;75.19
62057;BME280;48016;50.284;18.860;2023-05-24T09:45:02;98360.23;;;14.17;74.97
62057;BME280;48016;50.284;18.860;2023-05-24T09:47:36;98362.86;;;14.29;74.68
62057;BME280;48016;50.284;18.860;2023-05-24T09:50:05;98364.80;;;14.34;74.67
62057;BME280;48016;50.284;18.860;2023-05-24T09:52:36;98365.05;;;14.36;73.92
62057;BME280;48016;50.284;18.860;2023-05-24T09:55:19;98364.82;;;14.40;74.17
62057;BME280;48016;50.284;18.860;2023-05-24T09:57:51;98364.08;;;14.48;73.95
62057;BME280;48016;50.284;18.860;2023-05-24T10:00:23;98364.28;;;14.58;73.60
62057;BME280;48016;50.284;18.860;2023-05-24T10:03:01;98365.33;;;14.66;73.43
62057;BME280;48016;50.284;18.860;2023-05-24T10:05:29;98366.11;;;14.85;73.13
62057;BME280;48016;50.284;18.860;2023-05-24T10:07:56;98363.89;;;15.01;72.76
62057;BME280;48016;50.284;18.860;2023-05-24T10:10:29;98370.99;;;15.14;72.46
62057;BME280;48016;50.284;18.860;2023-05-24T10:12:57;98371.23;;;15.33;72.04
62057;BME280;48016;50.284;18.860;2023-05-24T10:15:24;98369.25;;;15.55;71.58
62057;BME280;48016;50.284;18.860;2023-05-24T10:17:55;98367.64;;;15.76;71.03
62057;BME280;48016;50.284;18.860;2023-05-24T10:20:24;98371.16;;;15.95;70.61
62057;BME280;48016;50.284;18.860;2023-05-24T10:22:57;98369.44;;;16.08;69.66
62057;BME280;48016;50.284;18.860;2023-05-24T10:25:27;98372.05;;;16.18;69.51
62057;BME280;48016;50.284;18.860;2023-05-24T10:27:57;98376.23;;;16.25;69.03
62057;BME280;48016;50.284;18.860;2023-05-24T10:32:56;98374.33;;;16.40;68.30
62057;BME280;48016;50.284;18.860;2023-05-24T10:35:23;98372.83;;;16.50;68.38
62057;BME280;48016;50.284;18.860;2023-05-24T10:37:52;98376.34;;;16.49;67.93
62057;BME280;48016;50.284;18.860;2023-05-24T10:40:21;98378.51;;;16.51;67.64
62057;BME280;48016;50.284;18.860;2023-05-24T10:42:51;98374.58;;;16.50;67.31
62057;BME280;48016;50.284;18.860;2023-05-24T10:47:52;98379.18;;;16.66;67.05
62057;BME280;48016;50.284;18.860;2023-05-24T10:50:20;98377.14;;;16.72;66.78
62057;BME280;48016;50.284;18.860;2023-05-24T10:52:48;98376.41;;;16.74;66.53
62057;BME280;48016;50.284;18.860;2023-05-24T10:55:15;98376.42;;;16.90;66.53
62057;BME280;48016;50.284;18.860;2023-05-24T10:57:44;98380.41;;;17.06;66.02
62057;BME280;48016;50.284;18.860;2023-05-24T11:03:01;98375.41;;;17.41;65.61
62057;BME280;48016;50.284;18.860;2023-05-24T11:08:12;98381.30;;;17.41;65.19
62057;BME280;48016;50.284;18.860;2023-05-24T11:10:38;98384.99;;;17.33;64.91
62057;BME280;48016;50.284;18.860;2023-05-24T11:13:07;98386.74;;;17.22;64.67
62057;BME280;48016;50.284;18.860;2023-05-24T11:15:34;98391.88;;;17.10;65.15
62057;BME280;48016;50.284;18.860;2023-05-24T11:20:43;98393.23;;;16.89;65.40
62057;BME280;48016;50.284;18.860;2023-05-24T11:23:13;98387.58;;;16.86;65.22
62057;BME280;48016;50.284;18.860;2023-05-24T11:25:41;98387.85;;;16.77;64.89
62057;BME280;48016;50.284;18.860;2023-05-24T11:28:09;98388.34;;;16.71;65.27
62057;BME280;48016;50.284;18.860;2023-05-24T11:30:45;98391.86;;;16.61;65.69
62057;BME280;48016;50.284;18.860;2023-05-24T11:35:39;98394.04;;;16.48;65.77
62057;BME280;48016;50.284;18.860;2023-05-24T11:38:14;98399.15;;;16.35;65.83
62057;BME280;48016;50.284;18.860;2023-05-24T11:40:42;98395.46;;;16.22;66.16
62057;BME280;48016;50.284;18.860;2023-05-24T11:43:13;98396.50;;;16.12;66.31
62057;BME280;48016;50.284;18.860;2023-05-24T11:45:41;98395.90;;;16.03;66.33
62057;BME280;48016;50.284;18.860;2023-05-24T11:48:09;98387.41;;;16.00;66.39
62057;BME280;48016;50.284;18.860;2023-05-24T11:50:44;98388.84;;;15.94;66.36
62057;BME280;48016;50.284;18.860;2023-05-24T11:53:12;98388.98;;;15.90;66.72
62057;BME280;48016;50.284;18.860;2023-05-24T11:55:39;98386.40;;;15.91;67.05
62057;BME280;48016;50.284;18.860;2023-05-24T11:58:10;98383.77;;;15.98;67.34
62057;BME280;48016;50.284;18.860;2023-05-24T12:00:41;98383.30;;;15.96;67.43
62057;BME280;48016;50.284;18.860;2023-05-24T12:03:08;98381.98;;;15.98;67.28
62057;BME280;48016;50.284;18.860;2023-05-24T12:05:35;98381.55;;;15.97;67.38
62057;BME280;48016;50.284;18.860;2023-05-24T12:08:03;98381.11;;;15.93;67.11
62057;BME280;48016;50.284;18.860;2023-05-24T12:10:35;98383.42;;;15.90;67.47
62057;BME280;48016;50.284;18.860;2023-05-24T12:13:03;98387.26;;;15.88;67.54
62057;BME280;48016;50.284;18.860;2023-05-24T12:15:30;98385.27;;;15.91;67.68
62057;BME280;48016;50.284;18.860;2023-05-24T12:17:57;98385.87;;;15.96;67.67
62057;BME280;48016;50.284;18.860;2023-05-24T12:20:28;98386.76;;;15.99;67.64
62057;BME280;48016;50.284;18.860;2023-05-24T12:22:55;98386.00;;;16.00;67.72
62057;BME280;48016;50.284;18.860;2023-05-24T12:25:22;98385.79;;;16.04;67.80
62057;BME280;48016;50.284;18.860;2023-05-24T12:27:53;98389.31;;;16.06;67.59
62057;BME280;48016;50.284;18.860;2023-05-24T12:30:27;98390.34;;;16.02;67.73
62057;BME280;48016;50.284;18.860;2023-05-24T12:32:55;98391.21;;;16.00;67.66
62057;BME280;48016;50.284;18.860;2023-05-24T12:35:22;98394.33;;;16.01;67.60
62057;BME280;48016;50.284;18.860;2023-05-24T12:37:57;98394.94;;;16.00;67.67
62057;BME280;48016;50.284;18.860;2023-05-24T12:40:24;98394.80;;;16.02;67.86
62057;BME280;48016;50.284;18.860;2023-05-24T12:42:56;98395.10;;;16.00;67.74
62057;BME280;48016;50.284;18.860;2023-05-24T12:45:24;98395.49;;;15.98;68.03
62057;BME280;48016;50.284;18.860;2023-05-24T12:47:55;98397.80;;;15.97;67.97
62057;BME280;48016;50.284;18.860;2023-05-24T12:50:24;98399.88;;;15.97;67.82
62057;BME280;48016;50.284;18.860;2023-05-24T12:52:51;98400.71;;;15.96;68.03
62057;BME280;48016;50.284;18.860;2023-05-24T12:57:46;98396.55;;;15.91;68.00
62057;BME280;48016;50.284;18.860;2023-05-24T13:00:20;98394.42;;;15.92;67.76
62057;BME280;48016;50.284;18.860;2023-05-24T13:02:48;98394.86;;;15.92;67.66
62057;BME280;48016;50.284;18.860;2023-05-24T13:05:15;98392.33;;;15.94;67.74
62057;BME280;48016;50.284;18.860;2023-05-24T13:07:43;98395.21;;;15.94;67.50
62057;BME280;48016;50.284;18.860;2023-05-24T13:10:11;98390.87;;;15.98;67.56
62057;BME280;48016;50.284;18.860;2023-05-24T13:12:38;98391.19;;;16.04;67.31
62057;BME280;48016;50.284;18.860;2023-05-24T13:15:05;98393.77;;;16.09;67.28
62057;BME280;48016;50.284;18.860;2023-05-24T13:17:31;98393.98;;;16.09;67.19
62057;BME280;48016;50.284;18.860;2023-05-24T13:20:01;98393.66;;;16.13;67.41
62057;BME280;48016;50.284;18.860;2023-05-24T13:22:31;98394.09;;;16.18;67.34
62057;BME280;48016;50.284;18.860;2023-05-24T13:24:57;98388.48;;;16.26;66.85
62057;BME280;48016;50.284;18.860;2023-05-24T13:27:24;98388.73;;;16.40;66.88
62057;BME280;48016;50.284;18.860;2023-05-24T13:29:51;98385.92;;;16.51;66.82